sensor_id;sensor_type;location;lat;lon;timestamp;P1;durP1;ratioP1;P2;durP2;ratioP2
39898;SDS011;25571;47.876;10.642;2022-09-09T04:05:01;0.90;;;0.90;;
39898;SDS011;25571;47.876;10.642;2022-09-09T04:07:27;1.05;;;1.00;;
39898;SDS011;25571;47.876;10.642;2022-09-09T04:09:53;1.17;;;1.02;;
39898;SDS011;25571;47.876;10.642;2022-09-09T04:12:19;1.35;;;1.20;;
39898;SDS011;25571;47.876;10.642;2022-09-09T04:14:46;1.13;;;1.00;;
39898;SDS011;25571;47.876;10.642;2022-09-09T04:17:11;1.90;;;1.35;;
39898;SDS011;25571;47.876;10.642;2022-09-09T04:19:37;1.10;;;1.00;;
39898;SDS011;25571;47.876;10.642;2022-09-09T04:22:02;1.50;;;0.90;;
39898;SDS011;25571;47.876;10.642;2022-09-09T04:24:29;2.13;;;1.10;;
39898;SDS011;25571;47.876;10.642;2022-09-09T04:26:54;1.20;;;1.10;;
39898;SDS011;25571;47.876;10.642;2022-09-09T04:29:20;1.60;;;1.33;;
39898;SDS011;25571;47.876;10.642;2022-09-09T04:31:46;1.30;;;1.20;;
39898;SDS011;25571;47.876;10.642;2022-09-09T04:34:11;1.40;;;1.30;;
39898;SDS011;25571;47.876;10.642;2022-09-09T04:36:37;1.17;;;1.05;;
39898;SDS011;25571;47.876;10.642;2022-09-09T04:39:04;1.02;;;0.93;;
39898;SDS011;25571;47.876;10.642;2022-09-09T04:41:29;0.98;;;0.93;;
39898;SDS011;25571;47.876;10.642;2022-09-09T04:43:56;1.23;;;1.10;;
39898;SDS011;25571;47.876;10.642;2022-09-09T04:46:22;2.47;;;1.27;;
39898;SDS011;25571;47.876;10.642;2022-09-09T04:48:48;1.48;;;1.23;;
39898;SDS011;25571;47.876;10.642;2022-09-09T04:51:14;0.90;;;0.90;;
39898;SDS011;25571;47.876;10.642;2022-09-09T04:53:40;1.20;;;1.10;;
39898;SDS011;25571;47.876;10.642;2022-09-09T04:56:10;1.23;;;1.13;;
39898;SDS011;25571;47.876;10.642;2022-09-09T04:58:37;1.38;;;1.00;;
39898;SDS011;25571;47.876;10.642;2022-09-09T05:03:37;1.05;;;0.88;;
39898;SDS011;25571;47.876;10.642;2022-09-09T05:06:06;0.90;;;0.90;;
39898;SDS011;25571;47.876;10.642;2022-09-09T05:08:34;1.10;;;1.00;;
39898;SDS011;25571;47.876;10.642;2022-09-09T05:11:04;1.10;;;1.00;;
39898;SDS011;25571;47.876;10.642;2022-09-09T05:13:50;1.20;;;1.10;;
39898;SDS011;25571;47.876;10.642;2022-09-09T05:16:17;1.30;;;1.20;;
39898;SDS011;25571;47.876;10.642;2022-09-09T05:18:43;1.10;;;1.00;;
39898;SDS011;25571;47.876;10.642;2022-09-09T05:21:09;1.02;;;0.95;;
39898;SDS011;25571;47.876;10.642;2022-09-09T05:23:35;0.82;;;0.82;;
39898;SDS011;25571;47.876;10.642;2022-09-09T05:26:02;1.27;;;0.95;;
39898;SDS011;25571;47.876;10.642;2022-09-09T05:28:28;1.52;;;1.23;;
39898;SDS011;25571;47.876;10.642;2022-09-09T05:30:55;0.88;;;0.88;;
39898;SDS011;25571;47.876;10.642;2022-09-09T05:33:26;1.30;;;1.20;;
39898;SDS011;25571;47.876;10.642;2022-09-09T05:35:58;1.17;;;1.05;;
39898;SDS011;25571;47.876;10.642;2022-09-09T05:38:27;1.08;;;0.98;;
39898;SDS011;25571;47.876;10.642;2022-09-09T05:40:53;1.30;;;1.20;;
39898;SDS011;25571;47.876;10.642;2022-09-09T05:43:20;1.25;;;1.15;;
39898;SDS011;25571;47.876;10.642;2022-09-09T05:45:46;1.25;;;1.13;;
39898;SDS011;25571;47.876;10.642;2022-09-09T05:48:13;2.30;;;1.50;;
39898;SDS011;25571;47.876;10.642;2022-09-09T05:50:42;1.60;;;1.40;;
39898;SDS011;25571;47.876;10.642;2022-09-09T05:53:09;3.03;;;1.55;;
39898;SDS011;25571;47.876;10.642;2022-09-09T05:55:35;0.90;;;0.90;;
39898;SDS011;25571;47.876;10.642;2022-09-09T05:58:01;1.23;;;1.00;;
39898;SDS011;25571;47.876;10.642;2022-09-09T06:00:27;1.17;;;0.70;;
39898;SDS011;25571;47.876;10.642;2022-09-09T06:02:54;0.77;;;0.77;;
39898;SDS011;25571;47.876;10.642;2022-09-09T06:05:20;0.70;;;0.70;;
39898;SDS011;25571;47.876;10.642;2022-09-09T06:07:47;1.60;;;1.13;;
39898;SDS011;25571;47.876;10.642;2022-09-09T06:10:16;1.38;;;0.90;;
39898;SDS011;25571;47.876;10.642;2022-09-09T06:12:42;0.80;;;0.80;;
39898;SDS011;25571;47.876;10.642;2022-09-09T06:15:08;2.10;;;1.17;;
39898;SDS011;25571;47.876;10.642;2022-09-09T06:17:34;0.98;;;0.90;;
39898;SDS011;25571;47.876;10.642;2022-09-09T06:19:59;1.45;;;0.90;;
39898;SDS011;25571;47.876;10.642;2022-09-09T06:22:25;0.70;;;0.70;;
39898;SDS011;25571;47.876;10.642;2022-09-09T06:24:51;0.70;;;0.70;;
39898;SDS011;25571;47.876;10.642;2022-09-09T06:27:18;0.80;;;0.80;;
39898;SDS011;25571;47.876;10.642;2022-09-09T06:29:44;1.42;;;0.70;;
39898;SDS011;25571;47.876;10.642;2022-09-09T06:32:09;0.75;;;0.75;;
39898;SDS011;25571;47.876;10.642;2022-09-09T06:34:35;0.98;;;0.93;;
39898;SDS011;25571;47.876;10.642;2022-09-09T06:37:01;1.30;;;0.98;;
39898;SDS011;25571;47.876;10.642;2022-09-09T06:39:27;2.83;;;0.80;;
39898;SDS011;25571;47.876;10.642;2022-09-09T06:41:52;1.02;;;0.75;;
39898;SDS011;25571;47.876;10.642;2022-09-09T06:44:18;0.85;;;0.77;;
39898;SDS011;25571;47.876;10.642;2022-09-09T06:46:44;0.60;;;0.57;;
39898;SDS011;25571;47.876;10.642;2022-09-09T06:49:13;1.17;;;1.00;;
39898;SDS011;25571;47.876;10.642;2022-09-09T06:51:39;2.35;;;1.20;;
39898;SDS011;25571;47.876;10.642;2022-09-09T06:54:07;1.10;;;0.80;;
39898;SDS011;25571;47.876;10.642;2022-09-09T06:59:05;1.85;;;0.77;;
39898;SDS011;25571;47.876;10.642;2022-09-09T07:01:34;0.77;;;0.70;;
39898;SDS011;25571;47.876;10.642;2022-09-09T07:04:02;0.75;;;0.75;;
39898;SDS011;25571;47.876;10.642;2022-09-09T07:06:30;0.70;;;0.70;;
39898;SDS011;25571;47.876;10.642;2022-09-09T07:08:58;1.17;;;0.80;;
39898;SDS011;25571;47.876;10.642;2022-09-09T07:11:29;1.05;;;0.77;;
39898;SDS011;25571;47.876;10.642;2022-09-09T07:13:56;0.55;;;0.50;;
39898;SDS011;25571;47.876;10.642;2022-09-09T07:16:22;1.10;;;0.60;;
39898;SDS011;25571;47.876;10.642;2022-09-09T07:18:49;1.00;;;0.73;;
39898;SDS011;25571;47.876;10.642;2022-09-09T07:21:15;2.10;;;0.63;;
39898;SDS011;25571;47.876;10.642;2022-09-09T07:23:42;1.17;;;0.80;;
39898;SDS011;25571;47.876;10.642;2022-09-09T07:26:12;0.80;;;0.60;;
39898;SDS011;25571;47.876;10.642;2022-09-09T07:28:42;1.23;;;1.05;;
39898;SDS011;25571;47.876;10.642;2022-09-09T07:31:13;0.93;;;0.73;;
39898;SDS011;25571;47.876;10.642;2022-09-09T07:33:43;0.85;;;0.60;;
39898;SDS011;25571;47.876;10.642;2022-09-09T07:36:11;1.58;;;0.90;;
39898;SDS011;25571;47.876;10.642;2022-09-09T07:38:40;0.65;;;0.65;;
39898;SDS011;25571;47.876;10.642;2022-09-09T07:41:08;0.98;;;0.80;;
39898;SDS011;25571;47.876;10.642;2022-09-09T07:43:39;1.33;;;0.80;;
39898;SDS011;25571;47.876;10.642;2022-09-09T07:46:05;0.82;;;0.80;;
39898;SDS011;25571;47.876;10.642;2022-09-09T07:48:31;1.25;;;0.77;;
39898;SDS011;25571;47.876;10.642;2022-09-09T07:51:09;1.13;;;0.80;;
39898;SDS011;25571;47.876;10.642;2022-09-09T07:53:42;0.77;;;0.60;;
39898;SDS011;25571;47.876;10.642;2022-09-09T07:56:08;1.25;;;0.60;;
39898;SDS011;25571;47.876;10.642;2022-09-09T07:58:39;1.77;;;0.63;;
39898;SDS011;25571;47.876;10.642;2022-09-09T08:01:06;0.50;;;0.50;;
39898;SDS011;25571;47.876;10.642;2022-09-09T08:03:34;2.00;;;0.70;;
39898;SDS011;25571;47.876;10.642;2022-09-09T08:06:00;1.42;;;0.60;;
39898;SDS011;25571;47.876;10.642;2022-09-09T08:08:27;0.70;;;0.57;;
39898;SDS011;25571;47.876;10.642;2022-09-09T08:10:53;1.48;;;0.50;;
39898;SDS011;25571;47.876;10.642;2022-09-09T08:13:25;1.80;;;0.60;;
39898;SDS011;25571;47.876;10.642;2022-09-09T08:15:52;0.68;;;0.45;;
39898;SDS011;25571;47.876;10.642;2022-09-09T08:18:17;0.68;;;0.60;;
39898;SDS011;25571;47.876;10.642;2022-09-09T08:20:43;0.70;;;0.70;;
39898;SDS011;25571;47.876;10.642;2022-09-09T08:23:08;0.98;;;0.57;;
39898;SDS011;25571;47.876;10.642;2022-09-09T08:25:34;0.77;;;0.45;;
39898;SDS011;25571;47.876;10.642;2022-09-09T08:27:59;3.22;;;0.70;;
39898;SDS011;25571;47.876;10.642;2022-09-09T08:30:25;2.05;;;0.90;;
39898;SDS011;25571;47.876;10.642;2022-09-09T08:32:51;1.70;;;0.70;;
39898;SDS011;25571;47.876;10.642;2022-09-09T08:35:17;3.45;;;0.80;;
39898;SDS011;25571;47.876;10.642;2022-09-09T08:37:42;0.82;;;0.70;;
39898;SDS011;25571;47.876;10.642;2022-09-09T08:40:09;1.23;;;0.60;;
39898;SDS011;25571;47.876;10.642;2022-09-09T08:42:46;3.38;;;0.73;;
39898;SDS011;25571;47.876;10.642;2022-09-09T08:50:36;1.42;;;0.45;;
39898;SDS011;25571;47.876;10.642;2022-09-09T08:55:52;0.38;;;0.38;;
39898;SDS011;25571;47.876;10.642;2022-09-09T08:58:31;0.47;;;0.25;;
39898;SDS011;25571;47.876;10.642;2022-09-09T09:01:05;1.42;;;0.43;;
39898;SDS011;25571;47.876;10.642;2022-09-09T09:12:07;0.73;;;0.30;;
39898;SDS011;25571;47.876;10.642;2022-09-09T09:14:54;0.45;;;0.40;;
39898;SDS011;25571;47.876;10.642;2022-09-09T09:17:21;1.00;;;0.40;;
39898;SDS011;25571;47.876;10.642;2022-09-09T09:19:50;1.10;;;0.90;;
39898;SDS011;25571;47.876;10.642;2022-09-09T09:22:19;1.38;;;0.70;;
39898;SDS011;25571;47.876;10.642;2022-09-09T09:27:18;0.75;;;0.30;;
39898;SDS011;25571;47.876;10.642;2022-09-09T09:32:44;0.95;;;0.40;;
39898;SDS011;25571;47.876;10.642;2022-09-09T09:35:20;0.45;;;0.38;;
39898;SDS011;25571;47.876;10.642;2022-09-09T09:37:46;1.52;;;0.30;;
39898;SDS011;25571;47.876;10.642;2022-09-09T09:40:17;0.40;;;0.30;;
39898;SDS011;25571;47.876;10.642;2022-09-09T09:42:55;0.95;;;0.40;;
39898;SDS011;25571;47.876;10.642;2022-09-09T09:45:34;0.68;;;0.43;;
39898;SDS011;25571;47.876;10.642;2022-09-09T09:48:09;1.90;;;0.20;;
39898;SDS011;25571;47.876;10.642;2022-09-09T09:50:39;2.65;;;0.57;;
39898;SDS011;25571;47.876;10.642;2022-09-09T09:55:53;0.43;;;0.22;;
39898;SDS011;25571;47.876;10.642;2022-09-09T09:58:22;0.98;;;0.40;;
39898;SDS011;25571;47.876;10.642;2022-09-09T10:00:50;0.55;;;0.40;;
39898;SDS011;25571;47.876;10.642;2022-09-09T10:03:22;0.40;;;0.28;;
39898;SDS011;25571;47.876;10.642;2022-09-09T10:05:51;0.50;;;0.30;;
39898;SDS011;25571;47.876;10.642;2022-09-09T10:08:17;1.30;;;0.50;;
39898;SDS011;25571;47.876;10.642;2022-09-09T10:18:43;1.95;;;0.50;;
39898;SDS011;25571;47.876;10.642;2022-09-09T10:26:47;0.98;;;0.22;;
39898;SDS011;25571;47.876;10.642;2022-09-09T10:32:33;0.77;;;0.40;;
39898;SDS011;25571;47.876;10.642;2022-09-09T10:35:14;0.75;;;0.43;;
39898;SDS011;25571;47.876;10.642;2022-09-09T10:38:12;0.52;;;0.30;;
39898;SDS011;25571;47.876;10.642;2022-09-09T10:45:48;3.03;;;0.50;;
39898;SDS011;25571;47.876;10.642;2022-09-09T10:51:00;1.95;;;0.70;;
39898;SDS011;25571;47.876;10.642;2022-09-09T10:56:04;1.30;;;0.50;;
39898;SDS011;25571;47.876;10.642;2022-09-09T10:58:47;0.95;;;0.77;;
39898;SDS011;25571;47.876;10.642;2022-09-09T11:02:00;3.00;;;1.25;;
39898;SDS011;25571;47.876;10.642;2022-09-09T11:04:29;1.48;;;1.00;;
39898;SDS011;25571;47.876;10.642;2022-09-09T11:07:00;2.55;;;1.33;;
39898;SDS011;25571;47.876;10.642;2022-09-09T11:09:33;1.98;;;0.70;;
39898;SDS011;25571;47.876;10.642;2022-09-09T11:12:04;0.77;;;0.60;;
39898;SDS011;25571;47.876;10.642;2022-09-09T11:17:56;0.70;;;0.40;;
39898;SDS011;25571;47.876;10.642;2022-09-09T11:20:01;0.55;;;0.35;;
39898;SDS011;25571;47.876;10.642;2022-09-09T11:22:31;1.58;;;0.68;;
39898;SDS011;25571;47.876;10.642;2022-09-09T11:25:32;2.25;;;0.70;;
39898;SDS011;25571;47.876;10.642;2022-09-09T11:28:18;2.22;;;0.60;;
39898;SDS011;25571;47.876;10.642;2022-09-09T11:38:29;1.67;;;0.57;;
39898;SDS011;25571;47.876;10.642;2022-09-09T11:41:04;2.42;;;0.75;;
39898;SDS011;25571;47.876;10.642;2022-09-09T11:43:39;0.80;;;0.50;;
39898;SDS011;25571;47.876;10.642;2022-09-09T11:46:07;0.93;;;0.75;;
39898;SDS011;25571;47.876;10.642;2022-09-09T11:51:25;0.73;;;0.60;;
39898;SDS011;25571;47.876;10.642;2022-09-09T11:56:57;0.90;;;0.40;;
39898;SDS011;25571;47.876;10.642;2022-09-09T11:59:24;2.38;;;0.50;;
39898;SDS011;25571;47.876;10.642;2022-09-09T12:02:02;1.20;;;0.50;;
39898;SDS011;25571;47.876;10.642;2022-09-09T12:04:38;1.17;;;0.60;;
39898;SDS011;25571;47.876;10.642;2022-09-09T12:07:24;1.75;;;0.40;;
39898;SDS011;25571;47.876;10.642;2022-09-09T12:10:28;0.80;;;0.40;;
39898;SDS011;25571;47.876;10.642;2022-09-09T12:15:53;0.68;;;0.32;;
39898;SDS011;25571;47.876;10.642;2022-09-09T12:18:33;2.55;;;0.70;;
39898;SDS011;25571;47.876;10.642;2022-09-09T12:21:12;2.13;;;0.60;;
39898;SDS011;25571;47.876;10.642;2022-09-09T12:23:58;1.20;;;0.55;;
39898;SDS011;25571;47.876;10.642;2022-09-09T12:37:06;1.02;;;0.50;;
39898;SDS011;25571;47.876;10.642;2022-09-09T12:39:38;1.70;;;0.57;;
39898;SDS011;25571;47.876;10.642;2022-09-09T12:42:15;0.65;;;0.40;;
39898;SDS011;25571;47.876;10.642;2022-09-09T12:47:21;1.58;;;0.40;;
39898;SDS011;25571;47.876;10.642;2022-09-09T12:49:50;0.77;;;0.50;;
39898;SDS011;25571;47.876;10.642;2022-09-09T12:52:37;1.23;;;0.50;;
39898;SDS011;25571;47.876;10.642;2022-09-09T12:55:04;1.30;;;0.40;;
39898;SDS011;25571;47.876;10.642;2022-09-09T12:57:35;1.27;;;0.40;;
39898;SDS011;25571;47.876;10.642;2022-09-09T13:00:04;1.48;;;0.50;;
39898;SDS011;25571;47.876;10.642;2022-09-09T13:02:45;1.20;;;0.40;;
39898;SDS011;25571;47.876;10.642;2022-09-09T13:05:23;2.25;;;0.40;;
39898;SDS011;25571;47.876;10.642;2022-09-09T13:08:04;0.50;;;0.30;;
39898;SDS011;25571;47.876;10.642;2022-09-09T13:10:32;1.88;;;0.40;;
39898;SDS011;25571;47.876;10.642;2022-09-09T13:13:00;1.02;;;0.40;;
39898;SDS011;25571;47.876;10.642;2022-09-09T13:15:27;1.52;;;0.40;;
39898;SDS011;25571;47.876;10.642;2022-09-09T13:17:55;0.63;;;0.32;;
39898;SDS011;25571;47.876;10.642;2022-09-09T13:22:49;2.22;;;1.45;;
39898;SDS011;25571;47.876;10.642;2022-09-09T13:25:22;1.65;;;0.82;;
39898;SDS011;25571;47.876;10.642;2022-09-09T13:30:32;1.15;;;0.63;;
39898;SDS011;25571;47.876;10.642;2022-09-09T13:35:52;1.48;;;0.40;;
39898;SDS011;25571;47.876;10.642;2022-09-09T13:38:21;0.65;;;0.40;;
39898;SDS011;25571;47.876;10.642;2022-09-09T13:41:00;0.60;;;0.35;;
39898;SDS011;25571;47.876;10.642;2022-09-09T13:43:37;0.50;;;0.30;;
39898;SDS011;25571;47.876;10.642;2022-09-09T13:48:54;1.27;;;0.47;;
39898;SDS011;25571;47.876;10.642;2022-09-09T13:51:22;0.68;;;0.28;;
39898;SDS011;25571;47.876;10.642;2022-09-09T13:54:13;0.63;;;0.30;;
39898;SDS011;25571;47.876;10.642;2022-09-09T13:56:40;0.82;;;0.52;;
39898;SDS011;25571;47.876;10.642;2022-09-09T13:59:17;1.40;;;0.55;;
39898;SDS011;25571;47.876;10.642;2022-09-09T14:01:44;1.23;;;0.50;;
39898;SDS011;25571;47.876;10.642;2022-09-09T14:04:10;0.50;;;0.35;;
39898;SDS011;25571;47.876;10.642;2022-09-09T14:06:36;1.75;;;0.55;;
39898;SDS011;25571;47.876;10.642;2022-09-09T14:09:03;0.80;;;0.45;;
39898;SDS011;25571;47.876;10.642;2022-09-09T14:11:29;0.43;;;0.40;;
39898;SDS011;25571;47.876;10.642;2022-09-09T14:13:55;0.98;;;0.50;;
39898;SDS011;25571;47.876;10.642;2022-09-09T14:16:21;0.40;;;0.30;;
39898;SDS011;25571;47.876;10.642;2022-09-09T14:18:46;0.90;;;0.43;;
39898;SDS011;25571;47.876;10.642;2022-09-09T14:21:13;1.95;;;0.52;;
39898;SDS011;25571;47.876;10.642;2022-09-09T14:23:40;1.73;;;0.30;;
39898;SDS011;25571;47.876;10.642;2022-09-09T14:26:06;0.75;;;0.55;;
39898;SDS011;25571;47.876;10.642;2022-09-09T14:28:32;1.30;;;0.40;;
39898;SDS011;25571;47.876;10.642;2022-09-09T14:31:01;0.40;;;0.30;;
39898;SDS011;25571;47.876;10.642;2022-09-09T14:33:28;0.50;;;0.30;;
39898;SDS011;25571;47.876;10.642;2022-09-09T14:35:55;2.78;;;0.32;;
39898;SDS011;25571;47.876;10.642;2022-09-09T14:38:25;0.85;;;0.50;;
39898;SDS011;25571;47.876;10.642;2022-09-09T14:40:54;0.73;;;0.47;;
39898;SDS011;25571;47.876;10.642;2022-09-09T14:43:19;0.98;;;0.30;;
39898;SDS011;25571;47.876;10.642;2022-09-09T14:45:45;0.50;;;0.43;;
39898;SDS011;25571;47.876;10.642;2022-09-09T14:48:12;0.60;;;0.20;;
39898;SDS011;25571;47.876;10.642;2022-09-09T14:50:39;0.50;;;0.22;;
39898;SDS011;25571;47.876;10.642;2022-09-09T14:53:06;0.73;;;0.40;;
39898;SDS011;25571;47.876;10.642;2022-09-09T14:55:33;2.25;;;0.45;;
39898;SDS011;25571;47.876;10.642;2022-09-09T14:57:59;1.02;;;0.40;;
39898;SDS011;25571;47.876;10.642;2022-09-09T15:00:25;0.60;;;0.50;;
39898;SDS011;25571;47.876;10.642;2022-09-09T15:02:54;0.63;;;0.40;;
39898;SDS011;25571;47.876;10.642;2022-09-09T15:05:20;0.77;;;0.32;;
39898;SDS011;25571;47.876;10.642;2022-09-09T15:07:46;0.75;;;0.30;;
39898;SDS011;25571;47.876;10.642;2022-09-09T15:10:13;1.45;;;0.40;;
39898;SDS011;25571;47.876;10.642;2022-09-09T15:12:39;1.05;;;0.40;;
39898;SDS011;25571;47.876;10.642;2022-09-09T15:15:06;0.40;;;0.40;;
39898;SDS011;25571;47.876;10.642;2022-09-09T15:17:33;1.55;;;0.50;;
39898;SDS011;25571;47.876;10.642;2022-09-09T15:19:59;1.02;;;0.30;;
39898;SDS011;25571;47.876;10.642;2022-09-09T15:22:24;0.50;;;0.30;;
39898;SDS011;25571;47.876;10.642;2022-09-09T15:24:50;0.55;;;0.30;;
39898;SDS011;25571;47.876;10.642;2022-09-09T15:27:16;0.60;;;0.40;;
39898;SDS011;25571;47.876;10.642;2022-09-09T15:29:41;1.20;;;0.50;;
39898;SDS011;25571;47.876;10.642;2022-09-09T15:32:08;1.20;;;0.40;;
39898;SDS011;25571;47.876;10.642;2022-09-09T15:34:34;0.95;;;0.30;;
39898;SDS011;25571;47.876;10.642;2022-09-09T15:36:59;1.17;;;0.40;;
39898;SDS011;25571;47.876;10.642;2022-09-09T15:39:25;1.15;;;0.47;;
39898;SDS011;25571;47.876;10.642;2022-09-09T15:41:51;0.30;;;0.30;;
39898;SDS011;25571;47.876;10.642;2022-09-09T15:44:17;1.27;;;0.50;;
39898;SDS011;25571;47.876;10.642;2022-09-09T15:46:50;0.50;;;0.30;;
39898;SDS011;25571;47.876;10.642;2022-09-09T15:49:25;1.40;;;0.57;;
39898;SDS011;25571;47.876;10.642;2022-09-09T15:51:55;1.00;;;0.60;;
39898;SDS011;25571;47.876;10.642;2022-09-09T15:54:28;0.50;;;0.25;;
39898;SDS011;25571;47.876;10.642;2022-09-09T15:56:58;0.60;;;0.40;;
39898;SDS011;25571;47.876;10.642;2022-09-09T15:59:26;1.00;;;0.40;;
39898;SDS011;25571;47.876;10.642;2022-09-09T16:01:53;1.02;;;0.30;;
39898;SDS011;25571;47.876;10.642;2022-09-09T16:04:20;0.70;;;0.43;;
39898;SDS011;25571;47.876;10.642;2022-09-09T16:06:56;0.57;;;0.38;;
39898;SDS011;25571;47.876;10.642;2022-09-09T16:09:30;0.82;;;0.30;;
39898;SDS011;25571;47.876;10.642;2022-09-09T16:11:59;1.45;;;0.30;;
39898;SDS011;25571;47.876;10.642;2022-09-09T16:14:26;2.78;;;0.52;;
39898;SDS011;25571;47.876;10.642;2022-09-09T16:16:52;0.70;;;0.60;;
39898;SDS011;25571;47.876;10.642;2022-09-09T16:19:18;1.20;;;0.43;;
39898;SDS011;25571;47.876;10.642;2022-09-09T16:21:46;0.90;;;0.40;;
39898;SDS011;25571;47.876;10.642;2022-09-09T16:24:14;1.50;;;0.55;;
39898;SDS011;25571;47.876;10.642;2022-09-09T16:26:43;0.30;;;0.30;;
39898;SDS011;25571;47.876;10.642;2022-09-09T16:29:10;0.38;;;0.30;;
39898;SDS011;25571;47.876;10.642;2022-09-09T16:31:36;0.68;;;0.40;;
39898;SDS011;25571;47.876;10.642;2022-09-09T16:34:02;0.77;;;0.40;;
39898;SDS011;25571;47.876;10.642;2022-09-09T16:36:29;1.65;;;0.52;;
39898;SDS011;25571;47.876;10.642;2022-09-09T16:39:00;0.95;;;0.40;;
39898;SDS011;25571;47.876;10.642;2022-09-09T16:41:29;1.00;;;0.50;;
39898;SDS011;25571;47.876;10.642;2022-09-09T16:43:56;1.13;;;0.40;;
39898;SDS011;25571;47.876;10.642;2022-09-09T16:46:24;1.40;;;0.35;;
39898;SDS011;25571;47.876;10.642;2022-09-09T16:48:50;0.50;;;0.50;;
39898;SDS011;25571;47.876;10.642;2022-09-09T16:51:27;0.57;;;0.32;;
39898;SDS011;25571;47.876;10.642;2022-09-09T16:53:55;1.90;;;0.40;;
39898;SDS011;25571;47.876;10.642;2022-09-09T16:56:23;0.95;;;0.30;;
39898;SDS011;25571;47.876;10.642;2022-09-09T16:59:00;0.20;;;0.20;;
39898;SDS011;25571;47.876;10.642;2022-09-09T17:01:29;2.13;;;0.63;;
39898;SDS011;25571;47.876;10.642;2022-09-09T17:03:57;0.65;;;0.40;;
39898;SDS011;25571;47.876;10.642;2022-09-09T17:06:23;0.40;;;0.30;;
39898;SDS011;25571;47.876;10.642;2022-09-09T17:08:53;0.47;;;0.40;;
39898;SDS011;25571;47.876;10.642;2022-09-09T17:11:23;0.70;;;0.40;;
39898;SDS011;25571;47.876;10.642;2022-09-09T17:13:49;0.70;;;0.40;;
39898;SDS011;25571;47.876;10.642;2022-09-09T17:16:17;0.43;;;0.30;;
39898;SDS011;25571;47.876;10.642;2022-09-09T17:18:45;0.77;;;0.40;;
39898;SDS011;25571;47.876;10.642;2022-09-09T17:21:15;0.68;;;0.30;;
39898;SDS011;25571;47.876;10.642;2022-09-09T17:23:43;0.55;;;0.30;;
39898;SDS011;25571;47.876;10.642;2022-09-09T17:26:11;0.20;;;0.20;;
39898;SDS011;25571;47.876;10.642;2022-09-09T17:28:39;1.00;;;0.45;;
39898;SDS011;25571;47.876;10.642;2022-09-09T17:31:06;0.32;;;0.30;;
39898;SDS011;25571;47.876;10.642;2022-09-09T17:33:34;0.30;;;0.30;;
39898;SDS011;25571;47.876;10.642;2022-09-09T17:36:06;0.50;;;0.40;;
39898;SDS011;25571;47.876;10.642;2022-09-09T17:38:42;1.02;;;0.30;;
39898;SDS011;25571;47.876;10.642;2022-09-09T17:41:18;0.30;;;0.30;;
39898;SDS011;25571;47.876;10.642;2022-09-09T17:43:46;0.55;;;0.50;;
39898;SDS011;25571;47.876;10.642;2022-09-09T17:46:16;0.65;;;0.40;;
39898;SDS011;25571;47.876;10.642;2022-09-09T17:48:47;0.68;;;0.40;;
39898;SDS011;25571;47.876;10.642;2022-09-09T17:51:17;1.27;;;0.60;;
39898;SDS011;25571;47.876;10.642;2022-09-09T17:53:45;0.60;;;0.35;;
39898;SDS011;25571;47.876;10.642;2022-09-09T17:56:14;0.68;;;0.52;;
39898;SDS011;25571;47.876;10.642;2022-09-09T17:58:41;0.73;;;0.50;;
39898;SDS011;25571;47.876;10.642;2022-09-09T18:01:11;0.60;;;0.50;;
39898;SDS011;25571;47.876;10.642;2022-09-09T18:04:02;0.50;;;0.40;;
39898;SDS011;25571;47.876;10.642;2022-09-09T18:06:31;0.57;;;0.47;;
39898;SDS011;25571;47.876;10.642;2022-09-09T18:09:03;0.50;;;0.40;;
39898;SDS011;25571;47.876;10.642;2022-09-09T18:11:33;0.30;;;0.30;;
39898;SDS011;25571;47.876;10.642;2022-09-09T18:14:03;0.98;;;0.40;;
39898;SDS011;25571;47.876;10.642;2022-09-09T18:16:30;3.03;;;0.55;;
39898;SDS011;25571;47.876;10.642;2022-09-09T18:19:00;0.35;;;0.30;;
39898;SDS011;25571;47.876;10.642;2022-09-09T18:21:28;0.50;;;0.50;;
39898;SDS011;25571;47.876;10.642;2022-09-09T18:26:27;0.75;;;0.75;;
39898;SDS011;25571;47.876;10.642;2022-09-09T18:28:55;0.68;;;0.60;;
39898;SDS011;25571;47.876;10.642;2022-09-09T18:31:22;0.93;;;0.52;;
39898;SDS011;25571;47.876;10.642;2022-09-09T18:33:49;0.60;;;0.60;;
39898;SDS011;25571;47.876;10.642;2022-09-09T18:36:19;0.60;;;0.57;;
39898;SDS011;25571;47.876;10.642;2022-09-09T18:38:46;1.75;;;0.47;;
39898;SDS011;25571;47.876;10.642;2022-09-09T18:41:13;0.88;;;0.57;;
39898;SDS011;25571;47.876;10.642;2022-09-09T18:43:41;1.05;;;0.50;;
39898;SDS011;25571;47.876;10.642;2022-09-09T18:46:07;0.80;;;0.68;;
39898;SDS011;25571;47.876;10.642;2022-09-09T18:48:33;1.17;;;0.50;;
39898;SDS011;25571;47.876;10.642;2022-09-09T18:51:03;0.40;;;0.40;;
39898;SDS011;25571;47.876;10.642;2022-09-09T18:53:33;0.73;;;0.50;;
39898;SDS011;25571;47.876;10.642;2022-09-09T18:56:00;1.23;;;0.50;;
39898;SDS011;25571;47.876;10.642;2022-09-09T18:58:28;0.60;;;0.50;;
39898;SDS011;25571;47.876;10.642;2022-09-09T19:00:54;1.83;;;0.73;;
39898;SDS011;25571;47.876;10.642;2022-09-09T19:03:21;2.03;;;1.02;;
39898;SDS011;25571;47.876;10.642;2022-09-09T19:05:47;1.30;;;1.20;;
39898;SDS011;25571;47.876;10.642;2022-09-09T19:08:13;1.00;;;0.85;;
39898;SDS011;25571;47.876;10.642;2022-09-09T19:10:39;2.55;;;0.95;;
39898;SDS011;25571;47.876;10.642;2022-09-09T19:13:05;2.00;;;0.90;;
39898;SDS011;25571;47.876;10.642;2022-09-09T19:15:34;0.77;;;0.75;;
39898;SDS011;25571;47.876;10.642;2022-09-09T19:18:01;1.35;;;1.25;;
39898;SDS011;25571;47.876;10.642;2022-09-09T19:20:27;2.42;;;1.60;;
39898;SDS011;25571;47.876;10.642;2022-09-09T19:22:52;0.95;;;0.90;;
39898;SDS011;25571;47.876;10.642;2022-09-09T19:25:18;1.13;;;0.90;;
39898;SDS011;25571;47.876;10.642;2022-09-09T19:27:44;1.10;;;1.00;;
39898;SDS011;25571;47.876;10.642;2022-09-09T19:30:10;1.67;;;1.30;;
39898;SDS011;25571;47.876;10.642;2022-09-09T19:32:37;1.73;;;1.63;;
39898;SDS011;25571;47.876;10.642;2022-09-09T19:35:03;1.73;;;1.60;;
39898;SDS011;25571;47.876;10.642;2022-09-09T19:37:30;1.63;;;1.50;;
39898;SDS011;25571;47.876;10.642;2022-09-09T19:39:56;2.40;;;2.17;;
39898;SDS011;25571;47.876;10.642;2022-09-09T19:42:22;2.63;;;1.40;;
39898;SDS011;25571;47.876;10.642;2022-09-09T19:44:47;1.10;;;0.93;;
39898;SDS011;25571;47.876;10.642;2022-09-09T19:47:14;0.88;;;0.77;;
39898;SDS011;25571;47.876;10.642;2022-09-09T19:49:41;0.93;;;0.80;;
39898;SDS011;25571;47.876;10.642;2022-09-09T19:52:07;1.25;;;1.00;;
39898;SDS011;25571;47.876;10.642;2022-09-09T19:54:33;2.63;;;1.98;;
39898;SDS011;25571;47.876;10.642;2022-09-09T19:56:59;5.13;;;2.67;;
39898;SDS011;25571;47.876;10.642;2022-09-09T19:59:25;1.38;;;1.27;;
39898;SDS011;25571;47.876;10.642;2022-09-09T20:01:51;1.85;;;1.60;;
39898;SDS011;25571;47.876;10.642;2022-09-09T20:04:18;1.45;;;1.30;;
39898;SDS011;25571;47.876;10.642;2022-09-09T20:06:44;1.40;;;1.30;;
39898;SDS011;25571;47.876;10.642;2022-09-09T20:09:13;2.67;;;1.35;;
39898;SDS011;25571;47.876;10.642;2022-09-09T20:11:41;1.63;;;0.98;;
39898;SDS011;25571;47.876;10.642;2022-09-09T20:14:07;1.58;;;0.57;;
39898;SDS011;25571;47.876;10.642;2022-09-09T20:16:33;2.97;;;0.50;;
39898;SDS011;25571;47.876;10.642;2022-09-09T20:19:00;1.52;;;0.57;;
39898;SDS011;25571;47.876;10.642;2022-09-09T20:21:29;1.38;;;0.50;;
39898;SDS011;25571;47.876;10.642;2022-09-09T20:24:00;1.65;;;0.63;;
39898;SDS011;25571;47.876;10.642;2022-09-09T20:26:30;0.75;;;0.30;;
39898;SDS011;25571;47.876;10.642;2022-09-09T20:28:59;0.45;;;0.20;;
39898;SDS011;25571;47.876;10.642;2022-09-09T20:31:26;0.25;;;0.10;;